Nearby METAR Reports

This page may be slow to load as it queries the National Weather Service for data.

KBIS - Bismarck, North Dakota, USA
Distance from station: S 10mi, 15km
Updated: Sun, 25-Feb-2018 12:52pm CST
Clear
Clear
 Wind from W
Wind: W 13 mph , 20 km/h
Temperature: 28°F , -2°C
Wind Chill: 17°F , -8°C
Dew Point: 18°F , -8°C
Humidity: 64%
Barometer: 29.72 inHg , 1006.4 hPa
Clouds: Clear
Visibility: 10 miles , 16 km
2018/02/25 18:52 KBIS 251852Z 27011KT 10SM CLR M02/M08 A2972 RMK AO2 SLP092 T10171083
KDIK - Dickinson, North Dakota, USA
Distance from station: W 95mi, 154km
Updated: Sun, 25-Feb-2018 12:56pm CST
Clear
Clear
 Wind from WSW
Wind: WSW 17 mph , 28 km/h
Temperature: 27°F , -3°C
Wind Chill: 14°F , -10°C
Dew Point: 16°F , -9°C
Humidity: 64%
Barometer: 29.63 inHg , 1003.4 hPa
Clouds: Clear
Visibility: 10 miles , 16 km
2018/02/25 18:56 KDIK 251856Z AUTO 25015KT 10SM CLR M03/M09 A2963 RMK AO2 SLP071 T10331089
 
KISN - Williston, North Dakota, USA
Distance from station: NNW 2mi, 2km
Updated: Sun, 25-Feb-2018 12:52pm CST
Clear
Clear
 Wind from SW
Wind: SW 12 mph , 19 km/h
Temperature: 21°F , -6°C
Wind Chill: 9°F , -13°C
Dew Point: 10°F , -12°C
Humidity: 63%
Barometer: 29.63 inHg , 1003.4 hPa
Clouds: Clear
Visibility: 10 miles , 16 km
2018/02/25 18:52 KISN 251852Z AUTO 23010KT 10SM CLR M06/M12 A2963 RMK AO2 SLP064 T10611122
KFAR - Fargo, North Dakota, USA
Distance from station: NNW 4mi, 7km
Updated: Sun, 25-Feb-2018 12:53pm CST
Mostly cloudy
Mostly cloudy
 Wind from W
Wind: W 17 mph , 28 km/h
Temperature: 27°F , -3°C
Wind Chill: 14°F , -10°C
Dew Point: 19°F , -7°C
Humidity: 74%
Barometer: 29.66 inHg , 1004.4 hPa
Clouds: Mostly cloudy
Visibility: 10 miles , 16 km
Cloud details: Mostly cloudy 6000 ft
2018/02/25 18:53 KFAR 251853Z 26015KT 10SM BKN060 M03/M07 A2966 RMK AO2 SLP061 T10281072
 
KGFK - Grand Forks, North Dakota, USA
Distance from station: NNW 76mi, 123km
Updated: Sun, 25-Feb-2018 12:53pm CST
Mostly cloudy
Mostly cloudy
 Wind from WNW
Wind: WNW 15 mph , 24 km/h
Temperature: 28°F , -2°C
Wind Chill: 16°F , -9°C
Dew Point: 21°F , -6°C
Humidity: 74%
Barometer: 29.61 inHg , 1002.7 hPa
Clouds: Mostly cloudy
Visibility: 10 miles , 16 km
Cloud details: Few Clouds 2100 ft
Mostly cloudy 6000 ft
Mostly cloudy 25000 ft
2018/02/25 18:53 KGFK 251853Z 29013KT 10SM FEW021 BKN060 BKN250 M02/M06 A2961 RMK AO2 SNB06E47 SLP042 P0000 T10221061
KMOT - Minot, North Dakota, USA
Distance from station: E 109mi, 175km
Updated: Sun, 25-Feb-2018 12:54pm CST
Clear
Clear
 Wind from WSW
Wind: WSW 20 mph , 31 km/h
Temperature: 27°F , -3°C
Wind Chill: 13°F , -11°C
Dew Point: 18°F , -8°C
Humidity: 69%
Barometer: 29.63 inHg , 1003.4 hPa
Clouds: Clear
Visibility: 10 miles , 16 km
2018/02/25 18:54 KMOT 251854Z 24017KT 10SM CLR M03/M08 A2963 RMK AO2 SLP059 T10281083